Time;durP1;ratioP1;P1;durP2;ratioP2;P2;SDS_P1;SDS_P2;PMS_P1;PMS_P2;Temp;Humidity;BMP_temperature;BMP_pressure;BME280_temperature;BME280_humidity;BME280_pressure;Samples;Min_cycle;Max_cycle;Signal;HPM_P1;HPM_P2
2021/09/23 00:00:21;;;;;;;13.52;6.15;;;14.50;98.50;;;;;;5025615;28;20033;-66
2021/09/23 00:02:48;;;;;;;12.70;5.97;;;14.50;98.60;;;;;;5030198;28;20029;-66
2021/09/23 00:05:22;;;;;;;13.23;6.80;;;14.50;98.60;;;;;;5032181;28;20034;-66
2021/09/23 00:07:55;;;;;;;12.48;6.60;;;14.50;98.70;;;;;;5031940;28;20038;-65
2021/09/23 00:10:26;;;;;;;11.95;6.47;;;14.40;98.60;;;;;;5028923;28;20040;-66
2021/09/23 00:12:54;;;;;;;13.48;6.00;;;14.40;98.70;;;;;;5031341;28;20128;-65
2021/09/23 00:15:20;;;;;;;16.10;7.25;;;14.40;98.70;;;;;;5032268;28;20029;-65
2021/09/23 00:17:49;;;;;;;15.60;7.10;;;14.40;98.80;;;;;;5030362;28;20029;-66
2021/09/23 00:20:16;;;;;;;14.20;7.07;;;14.40;98.90;;;;;;5031407;28;20044;-64
2021/09/23 00:22:41;;;;;;;15.02;8.13;;;14.40;98.90;;;;;;5030725;28;20091;-64
2021/09/23 00:25:08;;;;;;;15.50;6.80;;;14.30;98.90;;;;;;5031874;28;20025;-64
2021/09/23 00:27:33;;;;;;;12.68;7.22;;;14.30;98.90;;;;;;5027767;28;20103;-65
2021/09/23 00:29:59;;;;;;;15.10;7.30;;;14.30;98.90;;;;;;5031088;28;20485;-65
2021/09/23 00:32:24;;;;;;;12.18;7.75;;;14.30;99.00;;;;;;5032550;28;20113;-66
2021/09/23 00:34:50;;;;;;;13.02;7.53;;;14.30;98.90;;;;;;5015040;28;20498;-66
2021/09/23 00:37:15;;;;;;;12.40;7.15;;;14.30;98.90;;;;;;5030734;28;20032;-66
2021/09/23 00:39:41;;;;;;;13.48;7.05;;;14.30;98.90;;;;;;5016243;28;20034;-66
2021/09/23 00:42:07;;;;;;;11.02;7.03;;;14.30;98.90;;;;;;5032398;28;20029;-66
2021/09/23 00:44:33;;;;;;;12.32;7.20;;;14.30;99.00;;;;;;5030515;28;20393;-66
2021/09/23 00:46:58;;;;;;;12.55;7.85;;;14.30;99.00;;;;;;5030923;28;20075;-66
2021/09/23 00:49:24;;;;;;;14.55;8.15;;;14.30;99.00;;;;;;5030499;28;20381;-66
2021/09/23 00:51:50;;;;;;;13.55;8.23;;;14.20;99.00;;;;;;5030256;28;20026;-66
2021/09/23 00:54:17;;;;;;;12.60;8.20;;;14.20;99.00;;;;;;5030773;28;20151;-66
2021/09/23 00:56:43;;;;;;;12.73;8.07;;;14.20;99.10;;;;;;5030741;28;20109;-67
2021/09/23 00:59:08;;;;;;;18.92;9.95;;;14.20;99.10;;;;;;5030154;28;20541;-66
2021/09/23 01:01:34;;;;;;;17.13;7.43;;;14.20;99.10;;;;;;5031247;28;20025;-66
2021/09/23 01:03:59;;;;;;;14.85;8.35;;;14.20;99.10;;;;;;5029879;28;20033;-66
2021/09/23 01:06:25;;;;;;;13.40;8.23;;;14.20;99.10;;;;;;5028134;28;20025;-66
2021/09/23 01:08:58;;;;;;;15.38;9.18;;;14.20;99.10;;;;;;5038834;28;20056;-66
2021/09/23 01:11:27;;;;;;;15.15;8.88;;;14.10;99.20;;;;;;5037895;28;20040;-66
2021/09/23 01:13:53;;;;;;;13.60;8.80;;;14.10;99.20;;;;;;5029488;28;20060;-65
2021/09/23 01:16:18;;;;;;;14.35;8.70;;;14.10;99.20;;;;;;5031961;28;20068;-65
2021/09/23 01:18:44;;;;;;;17.48;9.35;;;14.10;99.20;;;;;;5028998;28;20017;-65
2021/09/23 01:21:10;;;;;;;14.77;9.10;;;14.10;99.20;;;;;;5030323;28;20030;-65
2021/09/23 01:23:44;;;;;;;13.50;8.60;;;14.10;99.20;;;;;;5029787;28;20040;-66
2021/09/23 01:26:16;;;;;;;14.75;9.65;;;14.10;99.30;;;;;;5030355;28;20037;-65
2021/09/23 01:28:42;;;;;;;15.05;8.65;;;14.10;99.20;;;;;;5025935;28;20565;-66
2021/09/23 01:31:08;;;;;;;16.52;8.68;;;14.00;99.20;;;;;;5031932;28;20025;-66
2021/09/23 01:33:34;;;;;;;13.38;8.73;;;14.00;99.20;;;;;;5027516;28;20079;-65
2021/09/23 01:36:00;;;;;;;16.77;8.80;;;14.00;99.20;;;;;;5030335;28;20025;-65
2021/09/23 01:38:26;;;;;;;19.42;9.05;;;14.00;99.20;;;;;;5028914;28;20040;-66
2021/09/23 01:40:52;;;;;;;13.52;8.60;;;14.00;99.30;;;;;;5030851;28;20044;-66
2021/09/23 01:43:18;;;;;;;14.20;8.82;;;14.00;99.30;;;;;;5025867;28;20041;-66
2021/09/23 01:45:45;;;;;;;19.33;9.75;;;14.00;99.30;;;;;;5022132;28;20021;-66
2021/09/23 01:48:10;;;;;;;20.33;9.82;;;13.90;99.30;;;;;;5029514;28;20024;-66
2021/09/23 01:50:36;;;;;;;16.50;9.55;;;14.00;99.30;;;;;;5029597;28;20018;-66
2021/09/23 01:53:02;;;;;;;14.15;9.75;;;13.90;99.30;;;;;;5029301;28;20041;-66
2021/09/23 01:55:27;;;;;;;16.30;8.55;;;13.90;99.30;;;;;;5030219;28;20374;-65
2021/09/23 01:57:53;;;;;;;18.38;9.95;;;13.90;99.40;;;;;;5031336;28;20033;-65
2021/09/23 02:00:18;;;;;;;14.65;9.52;;;13.90;99.30;;;;;;5022274;28;20517;-65
2021/09/23 02:02:44;;;;;;;17.23;9.30;;;13.90;99.30;;;;;;5029096;28;20044;-65
2021/09/23 02:05:10;;;;;;;17.13;10.20;;;13.90;99.30;;;;;;5029395;28;20080;-65
2021/09/23 02:07:35;;;;;;;14.95;10.77;;;13.80;99.30;;;;;;5030883;28;20374;-65
2021/09/23 02:10:01;;;;;;;17.13;11.13;;;13.90;99.30;;;;;;5026397;28;20076;-65
2021/09/23 02:12:27;;;;;;;16.80;10.45;;;13.80;99.30;;;;;;5031335;28;20473;-65
2021/09/23 02:14:52;;;;;;;21.17;11.88;;;13.80;99.30;;;;;;5029164;28;20063;-66
2021/09/23 02:17:18;;;;;;;16.58;10.68;;;13.80;99.30;;;;;;5034335;28;20025;-65
2021/09/23 02:19:43;;;;;;;22.15;10.90;;;13.80;99.30;;;;;;5031000;28;20031;-66
2021/09/23 02:22:09;;;;;;;16.98;11.45;;;13.80;99.30;;;;;;5034780;28;20428;-65
2021/09/23 02:24:34;;;;;;;19.30;10.85;;;13.80;99.30;;;;;;5033401;28;20378;-65
2021/09/23 02:27:00;;;;;;;19.45;11.27;;;13.80;99.40;;;;;;5035112;28;20025;-65
2021/09/23 02:29:25;;;;;;;23.50;12.00;;;13.80;99.40;;;;;;5032773;28;20025;-66
2021/09/23 02:31:51;;;;;;;16.65;11.05;;;13.80;99.40;;;;;;5034213;28;20025;-66
2021/09/23 02:34:16;;;;;;;19.30;12.25;;;13.70;99.40;;;;;;5033045;28;20431;-65
2021/09/23 02:36:42;;;;;;;19.02;11.70;;;13.70;99.40;;;;;;5030203;28;20033;-65
2021/09/23 02:39:07;;;;;;;18.88;12.07;;;13.70;99.40;;;;;;5031685;28;20132;-66
2021/09/23 02:41:33;;;;;;;20.27;12.23;;;13.70;99.50;;;;;;5034474;28;20495;-65
2021/09/23 02:43:59;;;;;;;16.75;10.88;;;13.60;99.50;;;;;;5023538;28;20045;-65
2021/09/23 02:46:25;;;;;;;18.23;11.88;;;13.60;99.50;;;;;;5030020;28;20021;-66
2021/09/23 02:48:50;;;;;;;23.60;12.57;;;13.60;99.50;;;;;;5033915;28;20118;-66
2021/09/23 02:51:16;;;;;;;19.40;13.05;;;13.60;99.50;;;;;;5034146;28;20119;-67
2021/09/23 02:53:43;;;;;;;18.50;11.98;;;13.60;99.50;;;;;;5030847;28;20131;-66
2021/09/23 02:56:09;;;;;;;17.45;12.23;;;13.60;99.70;;;;;;5034451;28;20025;-66
2021/09/23 02:58:34;;;;;;;21.55;12.60;;;13.60;99.50;;;;;;5032689;28;20030;-66
2021/09/23 03:01:00;;;;;;;18.63;12.18;;;13.60;99.50;;;;;;5034653;28;20105;-66
2021/09/23 03:03:25;;;;;;;18.25;12.93;;;13.60;99.50;;;;;;5022118;28;20029;-66
2021/09/23 03:05:51;;;;;;;21.52;12.95;;;13.50;99.50;;;;;;5033998;28;20029;-66
2021/09/23 03:08:16;;;;;;;22.90;12.77;;;13.60;99.60;;;;;;5031088;28;20157;-66
2021/09/23 03:10:42;;;;;;;22.95;13.48;;;13.50;99.50;;;;;;5032525;28;20022;-66
2021/09/23 03:13:07;;;;;;;22.98;13.05;;;13.50;99.50;;;;;;5032225;28;20018;-66
2021/09/23 03:15:33;;;;;;;20.80;13.27;;;13.50;99.50;;;;;;5014603;28;20390;-66
2021/09/23 03:17:58;;;;;;;21.08;13.40;;;13.50;99.50;;;;;;5019456;28;20030;-66
2021/09/23 03:20:25;;;;;;;18.40;13.63;;;13.50;99.60;;;;;;5033935;28;20068;-66
2021/09/23 03:22:52;;;;;;;22.67;14.10;;;13.50;99.60;;;;;;5031552;28;20025;-66
2021/09/23 03:25:18;;;;;;;21.27;14.55;;;13.50;99.60;;;;;;5013862;28;20079;-66
2021/09/23 03:27:44;;;;;;;22.58;13.77;;;13.50;99.60;;;;;;5016576;28;20083;-66
2021/09/23 03:30:11;;;;;;;23.58;14.93;;;13.50;99.50;;;;;;5048348;28;20448;-66
2021/09/23 03:32:37;;;;;;;22.90;14.73;;;13.50;99.50;;;;;;5032292;28;20030;-66
2021/09/23 03:35:03;;;;;;;20.48;14.18;;;13.50;99.50;;;;;;5031616;28;20094;-66
2021/09/23 03:37:28;;;;;;;24.20;15.13;;;13.50;99.60;;;;;;5033120;28;20175;-66
2021/09/23 03:39:54;;;;;;;23.42;14.77;;;13.50;99.60;;;;;;5015271;28;20034;-66
2021/09/23 03:42:19;;;;;;;22.40;13.20;;;13.40;99.60;;;;;;5020233;28;20515;-66
2021/09/23 03:44:45;;;;;;;26.55;15.13;;;13.40;99.60;;;;;;5028021;28;20034;-66
2021/09/23 03:47:11;;;;;;;20.92;14.07;;;13.40;99.70;;;;;;5018968;28;20454;-66
2021/09/23 03:49:36;;;;;;;20.27;13.63;;;13.40;99.70;;;;;;5017265;28;20077;-66
2021/09/23 03:52:02;;;;;;;21.20;13.80;;;13.40;99.70;;;;;;5016444;28;20147;-66
2021/09/23 03:54:27;;;;;;;23.17;14.68;;;13.40;99.70;;;;;;5031153;28;20058;-66
2021/09/23 03:56:53;;;;;;;22.63;14.27;;;13.40;99.60;;;;;;5029759;28;20033;-66
2021/09/23 03:59:18;;;;;;;20.88;14.15;;;13.40;99.70;;;;;;5029444;28;20026;-66
2021/09/23 04:01:46;;;;;;;23.52;15.32;;;13.30;99.60;;;;;;5032576;28;20101;-66
2021/09/23 04:04:12;;;;;;;27.70;16.13;;;13.30;99.70;;;;;;5030942;28;20107;-66
2021/09/23 04:06:42;;;;;;;22.08;15.15;;;13.30;99.70;;;;;;5026586;28;20537;-66
2021/09/23 04:09:11;;;;;;;24.63;14.45;;;13.30;99.80;;;;;;5031162;28;20041;-66
2021/09/23 04:11:38;;;;;;;23.25;15.38;;;13.30;99.80;;;;;;5033090;28;20434;-65
2021/09/23 04:14:05;;;;;;;23.42;14.95;;;13.30;99.70;;;;;;5026103;28;20041;-65
2021/09/23 04:16:31;;;;;;;25.63;15.68;;;13.30;99.70;;;;;;5032737;28;20112;-66
2021/09/23 04:18:56;;;;;;;27.38;16.38;;;13.30;99.70;;;;;;5030137;28;20554;-66
2021/09/23 04:21:22;;;;;;;23.77;16.38;;;13.30;99.70;;;;;;5034517;28;20071;-66
2021/09/23 04:23:47;;;;;;;26.17;16.55;;;13.30;99.80;;;;;;5032522;28;20101;-66
2021/09/23 04:26:13;;;;;;;26.40;16.67;;;13.30;99.80;;;;;;5034199;28;20025;-66
2021/09/23 04:28:38;;;;;;;24.83;15.90;;;13.30;99.80;;;;;;5025956;28;20025;-66
2021/09/23 04:31:04;;;;;;;24.60;15.23;;;13.30;99.90;;;;;;5033937;28;20025;-66
2021/09/23 04:33:29;;;;;;;25.17;16.35;;;13.20;99.80;;;;;;5031774;28;20034;-65
2021/09/23 04:35:56;;;;;;;28.77;16.52;;;13.20;99.90;;;;;;5033375;28;20104;-66
2021/09/23 04:38:22;;;;;;;24.23;16.33;;;13.20;99.90;;;;;;5029937;28;20183;-67
2021/09/23 04:40:49;;;;;;;31.10;18.02;;;13.20;99.90;;;;;;5032111;28;20482;-67
2021/09/23 04:43:14;;;;;;;28.38;17.48;;;13.20;99.90;;;;;;5028694;28;20026;-67
2021/09/23 04:45:40;;;;;;;26.90;16.55;;;13.30;99.90;;;;;;5034263;28;20492;-66
2021/09/23 04:48:05;;;;;;;24.27;15.07;;;13.30;99.90;;;;;;5045533;28;20033;-67
2021/09/23 04:50:31;;;;;;;27.60;16.98;;;13.30;99.90;;;;;;5025147;28;20030;-66
2021/09/23 04:52:57;;;;;;;25.08;17.20;;;13.30;99.90;;;;;;5030734;28;20486;-66
2021/09/23 04:55:22;;;;;;;28.17;17.92;;;13.40;99.90;;;;;;5029647;28;20501;-65
2021/09/23 04:57:48;;;;;;;28.33;17.58;;;13.40;99.90;;;;;;5029357;28;20021;-66
2021/09/23 05:00:14;;;;;;;25.77;18.25;;;13.40;99.90;;;;;;5030595;28;20536;-66
2021/09/23 05:02:39;;;;;;;29.58;18.15;;;13.40;99.90;;;;;;5031742;28;20021;-66
2021/09/23 05:05:06;;;;;;;28.60;17.95;;;13.40;99.90;;;;;;5030444;28;20044;-66
2021/09/23 05:07:31;;;;;;;27.95;19.27;;;13.40;99.90;;;;;;5032211;28;20370;-65
2021/09/23 05:09:57;;;;;;;31.58;17.52;;;13.40;99.90;;;;;;5024214;28;20020;-65
2021/09/23 05:12:22;;;;;;;27.90;17.80;;;13.40;99.90;;;;;;5030747;28;20033;-64
2021/09/23 05:14:48;;;;;;;26.58;17.70;;;13.40;99.90;;;;;;5028196;28;20338;-65
2021/09/23 05:17:13;;;;;;;27.90;18.02;;;13.40;99.90;;;;;;5029491;28;20068;-65
2021/09/23 05:19:39;;;;;;;24.60;17.08;;;13.40;99.90;;;;;;5029176;28;20038;-66
2021/09/23 05:22:04;;;;;;;32.67;18.98;;;13.40;99.90;;;;;;5031836;28;20021;-66
2021/09/23 05:24:30;;;;;;;30.58;18.75;;;13.40;99.90;;;;;;5029287;28;20406;-67
2021/09/23 05:26:55;;;;;;;27.38;17.88;;;13.40;99.90;;;;;;5031538;28;20022;-67
2021/09/23 05:29:21;;;;;;;29.38;18.50;;;13.50;99.90;;;;;;5029817;28;20152;-66
2021/09/23 05:31:47;;;;;;;29.42;18.27;;;13.50;99.90;;;;;;5031140;28;20067;-67
2021/09/23 05:34:12;;;;;;;29.08;18.30;;;13.50;99.90;;;;;;5029296;28;20044;-64
2021/09/23 05:36:38;;;;;;;27.33;18.88;;;13.50;99.90;;;;;;5030270;28;20032;-67
2021/09/23 05:39:04;;;;;;;32.15;19.30;;;13.50;99.90;;;;;;5026191;28;20033;-66
2021/09/23 05:41:30;;;;;;;27.23;17.80;;;13.60;99.90;;;;;;5019491;28;20694;-65
2021/09/23 05:43:56;;;;;;;29.83;19.27;;;13.50;99.90;;;;;;5019758;28;20030;-64
2021/09/23 05:46:21;;;;;;;29.13;19.13;;;13.50;99.90;;;;;;5016420;28;20451;-64
2021/09/23 05:48:47;;;;;;;30.35;19.00;;;13.60;99.90;;;;;;5017486;28;20029;-64
2021/09/23 05:51:12;;;;;;;27.65;18.55;;;13.60;99.90;;;;;;5018950;28;20382;-64
2021/09/23 05:53:38;;;;;;;30.48;19.92;;;13.70;99.90;;;;;;5019943;28;20145;-63
2021/09/23 05:56:04;;;;;;;27.15;17.45;;;13.70;99.90;;;;;;5032086;28;20398;-64
2021/09/23 05:58:29;;;;;;;30.83;19.40;;;13.70;99.90;;;;;;5017658;28;20098;-65
2021/09/23 06:00:55;;;;;;;33.83;18.90;;;13.80;99.90;;;;;;5015999;28;20040;-65
2021/09/23 06:03:20;;;;;;;29.98;19.52;;;13.80;99.90;;;;;;5022054;28;20029;-65
2021/09/23 06:05:47;;;;;;;29.23;18.95;;;13.90;99.90;;;;;;5028118;28;20048;-65
2021/09/23 06:08:13;;;;;;;23.98;16.90;;;13.90;99.80;;;;;;5029406;28;20026;-65
2021/09/23 06:10:39;;;;;;;29.60;18.55;;;14.00;99.80;;;;;;5026917;28;20039;-65
2021/09/23 06:13:05;;;;;;;29.50;19.35;;;14.00;99.70;;;;;;5021345;28;20026;-64
2021/09/23 06:15:31;;;;;;;26.60;18.70;;;14.10;99.70;;;;;;5020552;28;20061;-65
2021/09/23 06:17:57;;;;;;;29.60;18.63;;;14.10;99.70;;;;;;5018030;28;20049;-64
2021/09/23 06:20:22;;;;;;;31.55;20.00;;;14.20;99.60;;;;;;5025814;28;20048;-65
2021/09/23 06:22:48;;;;;;;27.65;18.90;;;14.20;99.60;;;;;;5022793;28;20049;-65
2021/09/23 06:25:13;;;;;;;28.35;19.30;;;14.20;99.50;;;;;;5020103;28;20032;-65
2021/09/23 06:27:39;;;;;;;31.48;18.08;;;14.30;99.50;;;;;;5028015;28;20033;-65
2021/09/23 06:30:05;;;;;;;27.58;18.45;;;14.30;99.50;;;;;;5019828;28;20030;-66
2021/09/23 06:32:31;;;;;;;27.67;19.50;;;14.40;99.40;;;;;;5019239;28;20118;-66
2021/09/23 06:34:56;;;;;;;30.17;19.55;;;14.40;99.40;;;;;;5017250;28;20041;-67
2021/09/23 06:37:22;;;;;;;30.75;18.75;;;14.50;99.50;;;;;;5019806;28;20018;-66
2021/09/23 06:39:48;;;;;;;27.40;18.38;;;14.50;99.40;;;;;;5015131;28;20091;-66
2021/09/23 06:42:16;;;;;;;25.95;17.42;;;14.50;99.30;;;;;;5015429;28;20547;-65
2021/09/23 06:44:43;;;;;;;30.48;18.85;;;14.60;99.30;;;;;;5018280;28;20069;-66
2021/09/23 06:47:08;;;;;;;30.25;19.58;;;14.70;99.40;;;;;;5016808;28;20026;-66
2021/09/23 06:49:34;;;;;;;28.70;18.80;;;14.80;99.40;;;;;;5014059;28;20029;-66
2021/09/23 06:51:59;;;;;;;30.52;20.25;;;14.80;99.30;;;;;;5021432;28;20025;-66
2021/09/23 06:54:25;;;;;;;27.92;18.60;;;14.80;99.30;;;;;;5021293;28;20409;-65
2021/09/23 06:56:50;;;;;;;38.08;20.10;;;14.90;99.20;;;;;;5026661;28;20338;-65
2021/09/23 06:59:16;;;;;;;36.10;20.80;;;15.00;99.30;;;;;;5021632;28;20440;-66
2021/09/23 07:01:41;;;;;;;32.72;19.50;;;15.00;99.20;;;;;;5029758;28;20022;-66
2021/09/23 07:04:07;;;;;;;31.45;19.25;;;15.10;99.10;;;;;;5022149;28;20066;-66
2021/09/23 07:06:33;;;;;;;32.08;20.42;;;15.20;99.00;;;;;;5020284;28;20031;-66
2021/09/23 07:08:58;;;;;;;34.50;19.58;;;15.20;98.90;;;;;;5019462;28;20036;-65
2021/09/23 07:11:24;;;;;;;30.05;19.50;;;15.30;98.80;;;;;;5022514;28;20024;-66
2021/09/23 07:13:49;;;;;;;29.27;19.30;;;15.20;98.80;;;;;;5017689;28;20028;-66
2021/09/23 07:16:15;;;;;;;35.50;22.23;;;15.30;98.70;;;;;;5021850;28;20056;-66
2021/09/23 07:18:41;;;;;;;32.53;20.92;;;15.30;98.70;;;;;;5017614;28;20034;-65
2021/09/23 07:21:09;;;;;;;31.40;19.55;;;15.30;98.60;;;;;;5022209;28;20033;-66
2021/09/23 07:23:35;;;;;;;32.78;20.90;;;15.30;98.60;;;;;;5025028;28;20026;-65
2021/09/23 07:26:00;;;;;;;35.60;21.55;;;15.40;98.60;;;;;;5020503;28;20018;-66
2021/09/23 07:28:26;;;;;;;30.15;20.65;;;15.50;98.50;;;;;;5029854;28;20025;-66
2021/09/23 07:30:52;;;;;;;31.75;19.13;;;15.50;98.40;;;;;;5030750;28;20103;-66
2021/09/23 07:33:18;;;;;;;28.92;19.25;;;15.60;98.40;;;;;;5028733;28;20033;-66
2021/09/23 07:35:44;;;;;;;32.22;20.08;;;15.70;98.20;;;;;;5022497;28;20117;-65
2021/09/23 07:38:10;;;;;;;29.10;19.08;;;15.80;98.10;;;;;;5020850;28;20100;-66
2021/09/23 07:40:35;;;;;;;31.80;19.67;;;15.90;98.10;;;;;;5033535;28;20018;-66
2021/09/23 07:43:01;;;;;;;28.80;18.77;;;16.00;97.90;;;;;;5021595;28;20099;-66
2021/09/23 07:45:27;;;;;;;27.17;19.20;;;16.00;97.80;;;;;;5033666;28;20359;-66
2021/09/23 07:47:52;;;;;;;29.60;20.27;;;16.10;97.70;;;;;;5031927;28;20587;-66
2021/09/23 07:50:18;;;;;;;34.28;20.17;;;16.20;97.60;;;;;;5013798;28;20075;-66
2021/09/23 07:52:43;;;;;;;30.52;20.02;;;16.30;97.40;;;;;;5022573;28;20022;-65
2021/09/23 07:55:09;;;;;;;32.75;21.92;;;16.40;97.30;;;;;;5028506;28;20392;-65
2021/09/23 07:57:35;;;;;;;28.80;18.88;;;16.40;97.20;;;;;;5021721;28;20018;-66
2021/09/23 08:00:02;;;;;;;25.40;17.10;;;16.60;97.10;;;;;;5029910;28;20037;-65
2021/09/23 08:02:28;;;;;;;28.52;17.90;;;16.60;97.00;;;;;;5029688;28;20021;-66
2021/09/23 08:04:53;;;;;;;28.95;18.58;;;16.80;96.90;;;;;;5026208;28;20151;-66
2021/09/23 08:07:19;;;;;;;26.77;17.83;;;16.90;96.80;;;;;;5033577;28;20203;-66
2021/09/23 08:09:48;;;;;;;23.15;15.80;;;17.00;96.60;;;;;;5032070;28;20544;-66
2021/09/23 08:12:14;;;;;;;27.83;17.65;;;17.10;96.50;;;;;;5031906;28;20030;-66
2021/09/23 08:14:39;;;;;;;20.95;15.23;;;17.30;96.30;;;;;;5029431;28;20060;-66
2021/09/23 08:17:05;;;;;;;24.27;16.35;;;17.40;96.20;;;;;;5031471;28;20475;-66
2021/09/23 08:19:35;;;;;;;23.75;15.68;;;17.60;96.00;;;;;;5032134;28;20021;-66
2021/09/23 08:22:00;;;;;;;24.90;15.57;;;17.70;95.70;;;;;;5032129;28;20033;-66
2021/09/23 08:24:26;;;;;;;26.50;18.55;;;17.80;95.80;;;;;;5031460;28;20026;-66
2021/09/23 08:26:52;;;;;;;24.90;16.15;;;17.90;95.20;;;;;;5028048;28;20033;-66
2021/09/23 08:29:17;;;;;;;27.70;16.02;;;18.00;94.90;;;;;;5013447;28;20018;-67
2021/09/23 08:31:43;;;;;;;22.08;15.40;;;18.10;94.80;;;;;;5023161;28;20032;-66
2021/09/23 08:34:08;;;;;;;26.08;15.40;;;18.20;94.60;;;;;;5030425;28;20417;-66
2021/09/23 08:36:34;;;;;;;18.42;13.07;;;18.30;94.10;;;;;;5028067;28;20505;-68
2021/09/23 08:39:00;;;;;;;21.38;13.23;;;18.40;93.90;;;;;;5031890;28;20030;-68
2021/09/23 08:41:25;;;;;;;23.50;13.68;;;18.40;93.80;;;;;;5030800;28;20152;-67
2021/09/23 08:43:51;;;;;;;20.35;13.55;;;18.50;93.70;;;;;;5033549;28;20048;-68
2021/09/23 08:46:17;;;;;;;22.58;13.45;;;18.60;93.40;;;;;;5031115;28;20029;-66
2021/09/23 08:48:43;;;;;;;21.77;14.98;;;18.60;93.10;;;;;;5031985;28;20033;-67
2021/09/23 08:51:08;;;;;;;18.52;11.57;;;18.70;92.90;;;;;;5024922;28;20076;-67
2021/09/23 08:53:34;;;;;;;17.95;12.15;;;18.80;92.90;;;;;;5022982;28;20475;-66
2021/09/23 08:55:59;;;;;;;23.15;13.50;;;18.80;92.70;;;;;;5026182;28;20083;-67
2021/09/23 08:58:25;;;;;;;21.95;13.05;;;18.90;92.60;;;;;;5032076;28;20498;-67
2021/09/23 09:01:05;;;;;;;19.50;12.38;;;18.90;92.40;;;;;;5034530;28;20064;-68
2021/09/23 09:03:34;;;;;;;17.02;12.15;;;18.90;92.30;;;;;;5029809;28;20021;-67
2021/09/23 09:06:07;;;;;;;19.02;11.90;;;18.90;92.10;;;;;;5030095;28;20033;-67
2021/09/23 09:08:37;;;;;;;19.85;12.50;;;18.90;91.90;;;;;;5022364;28;20379;-67
2021/09/23 09:11:05;;;;;;;20.67;11.82;;;19.00;91.80;;;;;;5021792;28;20075;-68
2021/09/23 09:13:36;;;;;;;17.65;12.00;;;19.00;91.80;;;;;;5029807;28;20145;-68
2021/09/23 09:16:10;;;;;;;17.88;11.77;;;19.10;91.70;;;;;;5030730;28;20037;-68
2021/09/23 09:18:37;;;;;;;16.17;10.35;;;19.10;91.60;;;;;;5023839;28;20018;-68
2021/09/23 09:21:09;;;;;;;17.60;10.75;;;19.20;91.60;;;;;;5011363;28;20101;-67
2021/09/23 09:23:50;;;;;;;14.52;10.18;;;19.20;91.30;;;;;;5020048;28;20033;-68
2021/09/23 09:26:26;;;;;;;14.63;9.98;;;19.20;91.30;;;;;;5022480;28;20563;-67
2021/09/23 09:28:59;;;;;;;15.00;10.93;;;19.30;91.30;;;;;;5025595;28;20050;-67
2021/09/23 09:31:26;;;;;;;13.43;8.55;;;19.30;91.10;;;;;;5030131;28;20033;-67
2021/09/23 09:33:54;;;;;;;15.10;9.88;;;19.30;91.00;;;;;;5030501;28;20061;-67
2021/09/23 09:36:33;;;;;;;15.55;9.80;;;19.40;90.90;;;;;;5014056;28;20068;-67
2021/09/23 09:39:08;;;;;;;17.08;9.18;;;19.40;90.70;;;;;;5018362;28;20120;-67
2021/09/23 09:41:37;;;;;;;13.82;10.00;;;19.50;90.60;;;;;;5029809;28;20038;-67
2021/09/23 09:44:08;;;;;;;15.98;9.60;;;19.50;90.70;;;;;;5017728;28;20069;-68
2021/09/23 09:46:38;;;;;;;13.98;9.18;;;19.60;90.50;;;;;;5016827;28;20029;-68
2021/09/23 09:49:03;;;;;;;15.32;9.50;;;19.70;90.50;;;;;;5030525;28;20053;-68
2021/09/23 09:51:45;;;;;;;15.27;9.93;;;19.70;90.30;;;;;;5024094;28;20196;-68
2021/09/23 09:54:13;;;;;;;13.82;9.45;;;19.80;90.30;;;;;;5029577;28;20460;-68
2021/09/23 09:56:40;;;;;;;13.48;8.40;;;19.90;90.20;;;;;;5029686;28;20028;-67
2021/09/23 09:59:12;;;;;;;14.82;9.23;;;19.90;90.00;;;;;;5029579;28;20040;-68
2021/09/23 10:01:40;;;;;;;14.68;9.18;;;20.00;89.90;;;;;;5031225;28;20033;-67
2021/09/23 10:04:07;;;;;;;16.10;10.50;;;20.00;89.40;;;;;;5029242;28;20375;-68
2021/09/23 10:06:33;;;;;;;15.23;9.38;;;20.10;89.20;;;;;;5028908;28;20025;-69
2021/09/23 10:08:58;;;;;;;14.57;9.35;;;20.10;89.30;;;;;;5028786;28;20029;-69
2021/09/23 10:11:25;;;;;;;12.55;8.95;;;20.10;89.50;;;;;;5023895;28;20032;-69
2021/09/23 10:13:52;;;;;;;14.73;8.18;;;20.10;89.10;;;;;;5031024;28;20048;-69
2021/09/23 10:16:19;;;;;;;11.90;8.75;;;20.20;89.00;;;;;;5012127;28;20034;-68
2021/09/23 10:18:45;;;;;;;11.77;8.18;;;20.30;88.50;;;;;;5031068;28;20025;-69
2021/09/23 10:21:11;;;;;;;12.10;8.63;;;20.40;87.80;;;;;;5036098;28;20490;-68
2021/09/23 10:23:41;;;;;;;14.23;9.15;;;20.50;87.60;;;;;;5030695;28;20041;-64
2021/09/23 10:26:08;;;;;;;14.05;8.88;;;20.60;87.20;;;;;;5022467;28;20025;-65
2021/09/23 10:28:35;;;;;;;16.55;8.73;;;20.70;86.70;;;;;;5010058;28;20026;-67
2021/09/23 10:31:00;;;;;;;11.65;8.60;;;20.80;86.20;;;;;;5024039;28;20470;-66
2021/09/23 10:33:27;;;;;;;11.10;7.65;;;20.80;85.50;;;;;;5028484;28;20095;-64
2021/09/23 10:35:53;;;;;;;13.18;8.45;;;20.90;85.40;;;;;;5030606;28;20034;-65
2021/09/23 10:38:18;;;;;;;12.77;7.95;;;20.90;85.50;;;;;;5033506;28;20138;-65
2021/09/23 10:40:44;;;;;;;11.82;7.85;;;21.00;85.40;;;;;;5032949;28;20018;-65
2021/09/23 10:43:15;;;;;;;10.63;7.35;;;21.00;85.00;;;;;;5028114;28;20057;-66
2021/09/23 10:45:42;;;;;;;10.82;6.95;;;21.10;84.40;;;;;;5023815;28;20025;-65
2021/09/23 10:48:09;;;;;;;10.90;6.72;;;21.20;84.20;;;;;;5034817;28;20036;-65
2021/09/23 10:50:37;;;;;;;9.98;6.88;;;21.20;83.90;;;;;;5033300;28;20031;-65
2021/09/23 10:53:06;;;;;;;8.95;6.55;;;21.20;83.30;;;;;;5033708;28;20080;-65
2021/09/23 10:55:35;;;;;;;11.07;6.55;;;21.30;83.30;;;;;;5033346;28;20049;-66
2021/09/23 10:58:02;;;;;;;13.30;6.70;;;21.30;83.00;;;;;;5030324;28;20112;-66
2021/09/23 11:00:32;;;;;;;12.68;6.70;;;21.30;82.20;;;;;;5022539;28;20034;-66
2021/09/23 11:02:57;;;;;;;10.40;6.93;;;21.40;81.50;;;;;;5019694;28;20056;-66
2021/09/23 11:05:24;;;;;;;8.73;5.88;;;21.30;80.30;;;;;;5031211;28;20033;-66
2021/09/23 11:07:52;;;;;;;11.63;7.00;;;21.40;79.90;;;;;;5032313;28;20159;-66
2021/09/23 11:10:23;;;;;;;11.98;7.60;;;21.40;79.50;;;;;;5032189;28;20038;-65
2021/09/23 11:12:53;;;;;;;7.95;5.65;;;21.40;78.90;;;;;;5021737;28;20040;-65
2021/09/23 11:15:21;;;;;;;9.15;5.75;;;21.40;79.00;;;;;;5034291;28;20041;-64
2021/09/23 11:17:48;;;;;;;9.43;5.68;;;21.40;78.40;;;;;;5032667;28;20087;-65
2021/09/23 11:20:18;;;;;;;8.95;5.43;;;21.40;78.10;;;;;;5029920;28;20524;-64
2021/09/23 11:22:52;;;;;;;11.20;5.63;;;21.50;77.80;;;;;;5034394;28;20022;-65
2021/09/23 11:25:21;;;;;;;8.68;5.57;;;21.40;76.70;;;;;;5032784;28;20022;-66
2021/09/23 11:27:48;;;;;;;11.77;6.03;;;21.40;77.00;;;;;;5039060;28;20566;-66
2021/09/23 11:30:19;;;;;;;8.18;5.13;;;21.50;77.20;;;;;;5032983;28;20044;-65
2021/09/23 11:32:57;;;;;;;8.07;5.30;;;21.50;76.90;;;;;;5028753;28;20061;-66
2021/09/23 11:35:25;;;;;;;11.48;4.63;;;21.60;76.60;;;;;;5026931;28;20029;-65
2021/09/23 11:37:51;;;;;;;9.35;4.70;;;21.60;76.40;;;;;;5029941;28;20044;-66
2021/09/23 11:40:22;;;;;;;6.97;4.55;;;21.60;75.70;;;;;;5024384;28;20040;-64
2021/09/23 11:42:48;;;;;;;7.07;4.68;;;21.70;75.50;;;;;;5020692;28;21554;-65
2021/09/23 11:45:20;;;;;;;6.20;4.30;;;21.70;75.00;;;;;;5029591;28;20025;-66
2021/09/23 11:47:55;;;;;;;10.05;4.65;;;21.80;74.60;;;;;;5024134;28;20116;-65
2021/09/23 11:50:27;;;;;;;9.05;4.18;;;21.70;74.40;;;;;;5026875;28;20025;-65
2021/09/23 11:52:58;;;;;;;7.60;4.28;;;21.70;73.50;;;;;;5028859;28;20069;-66
2021/09/23 11:55:24;;;;;;;6.88;3.92;;;21.70;73.10;;;;;;5021326;28;20045;-65
2021/09/23 11:58:00;;;;;;;6.15;3.85;;;21.70;73.50;;;;;;5020905;28;20021;-66
2021/09/23 12:00:31;;;;;;;4.25;3.13;;;21.70;73.30;;;;;;5019213;28;20025;-66
2021/09/23 12:02:57;;;;;;;6.35;3.33;;;21.70;73.50;;;;;;5019940;28;20028;-66
2021/09/23 12:05:28;;;;;;;9.25;4.43;;;21.70;73.00;;;;;;5021281;28;20021;-67
2021/09/23 12:07:54;;;;;;;8.13;3.58;;;21.80;73.20;;;;;;5028454;28;20037;-66
2021/09/23 12:10:21;;;;;;;4.22;3.20;;;21.80;72.80;;;;;;5024985;28;20088;-67
2021/09/23 12:13:00;;;;;;;5.07;3.00;;;21.90;73.10;;;;;;5019584;28;20056;-66
2021/09/23 12:15:30;;;;;;;3.70;2.65;;;21.90;73.30;;;;;;5020852;28;20049;-66
2021/09/23 12:17:58;;;;;;;5.50;2.70;;;21.90;72.50;;;;;;5023786;28;20033;-64
2021/09/23 12:20:40;;;;;;;4.57;2.95;;;21.90;72.30;;;;;;5025217;28;20112;-65
2021/09/23 12:23:33;;;;;;;3.50;2.20;;;21.90;71.60;;;;;;5023765;28;20528;-64
2021/09/23 12:26:04;;;;;;;4.45;2.58;;;21.90;71.40;;;;;;5019962;28;20046;-65
2021/09/23 12:28:31;;;;;;;4.60;2.35;;;22.00;70.60;;;;;;5017514;28;20049;-64